Time;durP1;ratioP1;P1;durP2;ratioP2;P2;SDS_P1;SDS_P2;PMS_P1;PMS_P2;Temp;Humidity;BMP_temperature;BMP_pressure;BME280_temperature;BME280_humidity;BME280_pressure;Samples;Min_cycle;Max_cycle;Signal;HPM_P1;HPM_P2
2021/07/02 00:00:34;;;;;;;2.30;1.40;;;15.30;87.30;;;;;;5033795;28;20049;-79
2021/07/02 00:03:01;;;;;;;1.63;1.13;;;15.40;87.40;;;;;;5049039;28;20052;-79
2021/07/02 00:05:27;;;;;;;1.52;1.20;;;15.30;87.40;;;;;;5050166;28;20036;-79
2021/07/02 00:07:53;;;;;;;1.50;1.20;;;15.30;87.40;;;;;;5032919;28;20061;-79
2021/07/02 00:10:18;;;;;;;1.60;1.20;;;15.40;87.40;;;;;;5031539;28;20062;-79
2021/07/02 00:12:44;;;;;;;1.65;1.20;;;15.30;87.40;;;;;;5048153;28;20033;-79
2021/07/02 00:15:11;;;;;;;1.30;1.20;;;15.40;87.50;;;;;;5030461;28;20128;-79
2021/07/02 00:17:37;;;;;;;2.60;1.30;;;15.40;87.50;;;;;;5035391;28;20124;-79
2021/07/02 00:20:04;;;;;;;1.75;1.02;;;15.30;87.40;;;;;;5035298;28;20124;-79
2021/07/02 00:22:29;;;;;;;2.10;1.50;;;15.30;87.50;;;;;;5052134;28;20073;-79
2021/07/02 00:24:55;;;;;;;2.40;1.30;;;15.40;87.50;;;;;;5068135;28;20048;-79
2021/07/02 00:27:20;;;;;;;2.15;1.45;;;15.30;87.60;;;;;;5038116;28;20097;-79
2021/07/02 00:29:46;;;;;;;1.65;1.27;;;15.40;87.60;;;;;;5054472;28;20060;-79
2021/07/02 00:32:12;;;;;;;1.98;1.40;;;15.30;87.50;;;;;;5118522;28;20471;-79
2021/07/02 00:34:37;;;;;;;2.53;1.48;;;15.30;87.60;;;;;;5097647;28;20455;-80
2021/07/02 00:37:03;;;;;;;2.10;1.40;;;15.30;87.50;;;;;;5132562;28;20127;-79
2021/07/02 00:39:29;;;;;;;2.85;1.33;;;15.20;87.50;;;;;;5134939;28;20519;-80
2021/07/02 00:41:54;;;;;;;2.30;1.30;;;15.30;87.60;;;;;;5116009;28;20054;-79
2021/07/02 00:44:40;;;;;;;1.85;1.10;;;15.30;87.50;;;;;;5094649;28;20508;-80
2021/07/02 00:47:05;;;;;;;1.30;0.98;;;15.30;87.60;;;;;;5097416;28;20040;-80
2021/07/02 00:49:33;;;;;;;2.25;1.40;;;15.30;87.50;;;;;;5078624;28;20066;-79
2021/07/02 00:52:00;;;;;;;1.92;1.17;;;15.30;87.60;;;;;;5098117;28;20516;-79
2021/07/02 00:54:25;;;;;;;2.85;1.65;;;15.30;87.60;;;;;;5113493;28;20032;-79
2021/07/02 00:56:51;;;;;;;2.05;1.10;;;15.30;87.70;;;;;;5133757;28;20046;-79
2021/07/02 00:59:17;;;;;;;2.97;1.27;;;15.30;87.70;;;;;;5098241;28;20077;-79
2021/07/02 01:01:42;;;;;;;2.30;1.50;;;15.30;87.70;;;;;;5115249;28;20077;-79
2021/07/02 01:04:08;;;;;;;2.88;1.33;;;15.30;87.70;;;;;;5114517;28;20488;-79
2021/07/02 01:06:33;;;;;;;2.78;1.27;;;15.30;87.80;;;;;;5113501;28;20098;-79
2021/07/02 01:08:59;;;;;;;2.25;1.30;;;15.30;87.80;;;;;;5096301;28;20039;-79
2021/07/02 01:11:25;;;;;;;2.97;1.33;;;15.30;87.80;;;;;;5133647;28;20537;-79
2021/07/02 01:13:50;;;;;;;1.33;1.20;;;15.30;87.80;;;;;;5131563;28;20047;-79
2021/07/02 01:16:16;;;;;;;3.28;1.50;;;15.30;87.80;;;;;;5096944;28;20043;-79
2021/07/02 01:18:44;;;;;;;2.85;1.42;;;15.30;87.80;;;;;;5112561;28;20044;-80
2021/07/02 01:21:12;;;;;;;2.20;1.40;;;15.20;87.80;;;;;;5095328;28;20039;-79
2021/07/02 01:23:37;;;;;;;2.53;1.48;;;15.20;87.90;;;;;;5113699;28;20048;-79
2021/07/02 01:26:04;;;;;;;2.28;1.40;;;15.20;87.90;;;;;;5113930;28;20092;-79
2021/07/02 01:28:30;;;;;;;2.35;1.45;;;15.20;87.90;;;;;;5112919;28;20034;-79
2021/07/02 01:30:55;;;;;;;2.05;1.27;;;15.20;87.90;;;;;;5132761;28;20388;-79
2021/07/02 01:33:21;;;;;;;2.97;1.52;;;15.20;87.90;;;;;;5132517;28;20047;-79
2021/07/02 01:35:46;;;;;;;2.63;1.33;;;15.10;88.00;;;;;;5096142;28;20065;-79
2021/07/02 01:38:13;;;;;;;2.97;1.65;;;15.20;88.00;;;;;;5129606;28;20035;-80
2021/07/02 01:40:38;;;;;;;2.35;1.48;;;15.10;87.90;;;;;;5093605;28;20432;-79
2021/07/02 01:43:04;;;;;;;2.17;1.58;;;15.10;87.90;;;;;;5113428;28;20036;-79
2021/07/02 01:45:30;;;;;;;2.22;1.33;;;15.20;88.00;;;;;;5096136;28;20044;-79
2021/07/02 01:47:56;;;;;;;3.15;1.58;;;15.20;88.00;;;;;;5096957;28;20508;-79
2021/07/02 01:50:25;;;;;;;1.88;1.30;;;15.10;88.00;;;;;;5078481;28;20038;-80
2021/07/02 01:52:51;;;;;;;2.10;1.45;;;15.10;88.00;;;;;;5115317;28;20043;-80
2021/07/02 01:55:16;;;;;;;3.03;1.40;;;15.10;88.00;;;;;;5133420;28;20046;-80
2021/07/02 01:57:42;;;;;;;2.45;1.33;;;15.10;88.00;;;;;;5134025;28;20043;-79
2021/07/02 02:00:08;;;;;;;1.92;1.30;;;15.10;88.10;;;;;;5115304;28;20047;-79
2021/07/02 02:02:34;;;;;;;1.63;1.33;;;15.10;88.00;;;;;;5098953;28;20535;-79
2021/07/02 02:04:59;;;;;;;3.67;1.50;;;15.00;88.00;;;;;;5133418;28;20052;-80
2021/07/02 02:07:25;;;;;;;1.85;1.30;;;15.10;88.10;;;;;;5135596;28;20050;-79
2021/07/02 02:09:51;;;;;;;2.83;1.45;;;15.00;88.00;;;;;;5115630;28;20050;-79
2021/07/02 02:12:16;;;;;;;1.90;1.35;;;15.00;88.00;;;;;;5135736;28;20043;-79
2021/07/02 02:14:42;;;;;;;3.92;1.60;;;15.10;88.10;;;;;;5133674;28;20158;-79
2021/07/02 02:17:08;;;;;;;3.00;1.60;;;15.10;88.00;;;;;;5129420;28;20042;-79
2021/07/02 02:19:34;;;;;;;2.58;1.30;;;15.10;88.10;;;;;;5130559;28;20038;-79
2021/07/02 02:21:59;;;;;;;2.53;1.60;;;15.10;88.30;;;;;;5111657;28;20039;-79
2021/07/02 02:24:26;;;;;;;2.55;1.48;;;15.00;88.00;;;;;;5094524;28;20108;-79
2021/07/02 02:26:51;;;;;;;1.73;1.20;;;15.10;88.10;;;;;;5110415;28;20043;-79
2021/07/02 02:29:17;;;;;;;3.05;1.70;;;15.00;88.00;;;;;;5075959;28;20043;-79
2021/07/02 02:31:43;;;;;;;2.20;1.27;;;15.00;88.00;;;;;;5092686;28;20024;-79
2021/07/02 02:34:08;;;;;;;1.77;1.20;;;15.00;88.00;;;;;;5092940;28;20047;-79
2021/07/02 02:36:34;;;;;;;1.50;1.00;;;15.00;88.00;;;;;;5093479;28;20477;-79
2021/07/02 02:39:00;;;;;;;2.20;1.17;;;15.00;88.00;;;;;;5110408;28;20051;-79
2021/07/02 02:41:25;;;;;;;2.05;1.20;;;15.00;88.10;;;;;;5110555;28;20504;-79
2021/07/02 02:43:51;;;;;;;2.83;1.55;;;15.00;88.10;;;;;;5093053;28;20056;-79
2021/07/02 02:46:17;;;;;;;1.77;1.20;;;15.00;88.10;;;;;;5110614;28;20476;-79
2021/07/02 02:48:42;;;;;;;2.15;1.30;;;14.90;88.00;;;;;;5105757;28;20095;-79
2021/07/02 02:51:08;;;;;;;3.00;1.25;;;14.90;88.00;;;;;;5108434;28;20110;-79
2021/07/02 02:53:34;;;;;;;1.85;1.30;;;14.90;88.10;;;;;;5090324;28;20040;-79
2021/07/02 02:55:59;;;;;;;2.50;1.38;;;14.80;88.10;;;;;;5127437;28;20067;-79
2021/07/02 02:58:25;;;;;;;2.22;1.45;;;14.80;88.10;;;;;;5128797;28;20401;-79
2021/07/02 03:00:50;;;;;;;2.60;1.70;;;14.80;88.20;;;;;;5110336;28;20043;-79
2021/07/02 03:03:16;;;;;;;2.90;1.58;;;14.80;88.20;;;;;;5126373;28;20048;-79
2021/07/02 03:05:42;;;;;;;2.55;1.33;;;14.70;88.20;;;;;;5106997;28;20048;-79
2021/07/02 03:08:07;;;;;;;1.55;1.05;;;14.70;88.30;;;;;;5089958;28;20046;-79
2021/07/02 03:10:33;;;;;;;2.40;1.50;;;14.70;88.40;;;;;;5107831;28;20111;-79
2021/07/02 03:12:59;;;;;;;2.30;1.45;;;14.70;88.40;;;;;;5105961;28;20050;-79
2021/07/02 03:15:26;;;;;;;2.83;1.60;;;14.70;88.40;;;;;;5107732;28;20974;-79
2021/07/02 03:17:51;;;;;;;2.42;1.40;;;14.70;88.40;;;;;;5107134;28;20040;-79
2021/07/02 03:20:17;;;;;;;2.65;1.40;;;14.60;88.40;;;;;;5088135;28;20047;-79
2021/07/02 03:22:43;;;;;;;2.92;1.40;;;14.60;88.40;;;;;;5123720;28;20075;-79
2021/07/02 03:25:09;;;;;;;3.55;1.38;;;14.60;88.40;;;;;;5087671;28;20109;-80
2021/07/02 03:27:35;;;;;;;2.95;1.50;;;14.60;88.50;;;;;;5072911;28;20035;-79
2021/07/02 03:30:01;;;;;;;2.63;1.50;;;14.60;88.40;;;;;;5124817;28;20489;-79
2021/07/02 03:32:27;;;;;;;2.67;1.40;;;14.60;88.40;;;;;;5107022;28;20074;-79
2021/07/02 03:34:52;;;;;;;3.53;1.60;;;14.60;88.30;;;;;;5107564;28;20110;-79
2021/07/02 03:37:18;;;;;;;2.67;1.70;;;14.70;88.40;;;;;;5105532;28;20044;-79
2021/07/02 03:39:44;;;;;;;3.22;1.60;;;14.60;88.30;;;;;;5124040;28;20039;-79
2021/07/02 03:42:10;;;;;;;2.42;1.40;;;14.60;88.30;;;;;;5086686;28;20044;-79
2021/07/02 03:44:36;;;;;;;2.30;1.20;;;14.70;88.40;;;;;;5103423;28;20443;-79
2021/07/02 03:47:01;;;;;;;1.75;1.35;;;14.60;88.30;;;;;;5108551;28;20035;-79
2021/07/02 03:49:28;;;;;;;2.53;1.50;;;14.70;88.30;;;;;;5071007;28;20059;-79
2021/07/02 03:51:54;;;;;;;3.08;1.52;;;14.60;88.30;;;;;;5104186;28;20040;-79
2021/07/02 03:54:20;;;;;;;3.20;1.58;;;14.60;88.30;;;;;;5125567;28;20061;-79
2021/07/02 03:59:28;;;;;;;2.33;1.52;;;14.50;88.20;;;;;;5125527;28;20040;-79
2021/07/02 04:01:55;;;;;;;2.05;1.15;;;14.60;88.30;;;;;;5070933;28;20042;-79
2021/07/02 04:04:21;;;;;;;2.38;1.42;;;14.60;88.20;;;;;;5071591;28;20055;-78
2021/07/02 04:06:47;;;;;;;3.28;1.70;;;14.60;88.30;;;;;;5106295;28;20035;-79
2021/07/02 04:09:13;;;;;;;2.42;1.63;;;14.60;88.20;;;;;;5126693;28;20134;-79
2021/07/02 04:11:38;;;;;;;3.00;1.70;;;14.60;88.30;;;;;;5127439;28;20039;-79
2021/07/02 04:14:04;;;;;;;2.65;1.48;;;14.60;88.20;;;;;;5109919;28;20043;-79
2021/07/02 04:16:30;;;;;;;2.13;1.50;;;14.60;88.20;;;;;;5090975;28;20044;-79
2021/07/02 04:18:56;;;;;;;2.30;1.52;;;14.50;88.30;;;;;;5088593;28;20036;-79
2021/07/02 04:21:22;;;;;;;3.03;1.67;;;14.60;88.20;;;;;;5105109;28;20058;-78
2021/07/02 04:23:47;;;;;;;2.30;1.38;;;14.50;88.20;;;;;;5105471;28;20035;-79
2021/07/02 04:26:13;;;;;;;3.85;1.90;;;14.60;88.30;;;;;;5104963;28;20044;-79
2021/07/02 04:28:38;;;;;;;3.13;1.85;;;14.50;88.20;;;;;;5105557;28;20076;-79
2021/07/02 04:31:05;;;;;;;2.30;1.58;;;14.60;88.20;;;;;;5107520;28;20577;-79
2021/07/02 04:33:30;;;;;;;3.08;1.73;;;14.60;88.20;;;;;;5110177;28;20040;-79
2021/07/02 04:35:56;;;;;;;4.00;2.10;;;14.60;88.20;;;;;;5126292;28;20046;-79
2021/07/02 04:38:22;;;;;;;3.22;1.90;;;14.50;88.10;;;;;;5106537;28;20044;-78
2021/07/02 04:40:48;;;;;;;2.65;1.45;;;14.50;88.10;;;;;;5126060;28;20036;-79
2021/07/02 04:43:14;;;;;;;4.22;1.60;;;14.50;88.20;;;;;;5107268;28;20047;-78
2021/07/02 04:45:40;;;;;;;3.67;1.98;;;14.50;88.20;;;;;;5089722;28;20079;-79
2021/07/02 04:48:06;;;;;;;3.45;1.85;;;14.50;88.20;;;;;;5124424;28;20035;-78
2021/07/02 04:50:32;;;;;;;3.67;1.77;;;14.50;88.30;;;;;;5091131;28;20061;-79
2021/07/02 04:52:57;;;;;;;3.42;1.63;;;14.40;88.20;;;;;;5125097;28;20042;-79
2021/07/02 04:55:23;;;;;;;2.70;1.45;;;14.40;88.30;;;;;;5104748;28;20471;-79
2021/07/02 04:57:48;;;;;;;1.65;1.15;;;14.50;88.40;;;;;;5127146;28;20047;-79
2021/07/02 05:00:14;;;;;;;2.40;1.52;;;14.50;88.30;;;;;;5091171;28;20032;-79
2021/07/02 05:02:40;;;;;;;4.20;1.88;;;14.50;88.20;;;;;;5106266;28;20473;-78
2021/07/02 05:05:06;;;;;;;3.22;1.90;;;14.50;88.10;;;;;;5124025;28;20047;-79
2021/07/02 05:07:32;;;;;;;2.88;1.60;;;14.60;88.10;;;;;;5122789;28;20042;-79
2021/07/02 05:10:00;;;;;;;2.50;1.50;;;14.60;88.00;;;;;;5104606;28;20047;-79
2021/07/02 05:12:26;;;;;;;2.25;1.45;;;14.60;88.00;;;;;;5102216;28;20066;-79
2021/07/02 05:14:51;;;;;;;2.50;1.60;;;14.60;88.00;;;;;;5104585;28;20048;-79
2021/07/02 05:17:17;;;;;;;2.53;1.55;;;14.50;88.00;;;;;;5103379;28;20051;-81
2021/07/02 05:19:43;;;;;;;2.47;1.40;;;14.60;88.10;;;;;;5121240;28;20401;-79
2021/07/02 05:22:13;;;;;;;2.85;1.42;;;14.60;88.10;;;;;;5085646;28;20039;-79
2021/07/02 05:24:40;;;;;;;2.40;1.50;;;14.60;88.00;;;;;;5104386;28;20051;-79
2021/07/02 05:27:06;;;;;;;1.85;1.33;;;14.70;88.00;;;;;;5103027;28;20093;-79
2021/07/02 05:29:31;;;;;;;2.50;1.40;;;14.70;87.90;;;;;;5105537;28;20035;-79
2021/07/02 05:31:57;;;;;;;2.28;1.45;;;14.70;87.90;;;;;;5107736;28;20431;-79
2021/07/02 05:34:22;;;;;;;2.97;1.58;;;14.80;87.90;;;;;;5126465;28;20043;-79
2021/07/02 05:36:48;;;;;;;2.03;1.35;;;14.80;87.80;;;;;;5105515;28;20130;-79
2021/07/02 05:39:14;;;;;;;2.80;1.60;;;15.00;87.60;;;;;;5105329;28;20055;-78
2021/07/02 05:41:39;;;;;;;2.67;1.60;;;15.10;87.30;;;;;;5106155;28;20508;-79
2021/07/02 05:44:05;;;;;;;4.45;2.05;;;15.10;87.10;;;;;;5126160;28;20043;-79
2021/07/02 05:46:31;;;;;;;3.35;1.70;;;15.10;87.10;;;;;;5093919;28;20102;-79
2021/07/02 05:48:57;;;;;;;3.05;1.90;;;15.20;87.00;;;;;;5110122;28;20127;-80
2021/07/02 05:51:22;;;;;;;2.70;1.75;;;15.30;86.70;;;;;;5092765;28;20460;-79
2021/07/02 05:53:48;;;;;;;3.38;1.60;;;15.40;86.50;;;;;;5126748;28;20128;-78
2021/07/02 05:56:13;;;;;;;2.65;1.80;;;15.30;86.60;;;;;;5130469;28;20043;-79
2021/07/02 05:58:39;;;;;;;2.78;1.73;;;15.30;86.60;;;;;;5112420;28;20095;-78
2021/07/02 06:01:05;;;;;;;3.83;1.70;;;15.40;86.80;;;;;;5094610;28;20032;-79
2021/07/02 06:03:31;;;;;;;3.15;2.10;;;15.40;86.80;;;;;;5110408;28;20035;-79
2021/07/02 06:05:56;;;;;;;2.83;1.63;;;15.50;86.70;;;;;;5125831;28;20048;-79
2021/07/02 06:08:22;;;;;;;2.35;1.40;;;15.50;86.50;;;;;;5102114;28;20027;-77
2021/07/02 06:10:47;;;;;;;2.70;1.52;;;15.60;86.40;;;;;;5099663;28;20044;-78
2021/07/02 06:13:13;;;;;;;3.40;2.03;;;15.70;86.30;;;;;;5097546;28;20055;-77
2021/07/02 06:15:39;;;;;;;4.40;1.88;;;15.80;86.00;;;;;;5120599;28;20088;-77
2021/07/02 06:18:07;;;;;;;3.83;2.13;;;15.90;86.00;;;;;;5061568;28;20067;-77
2021/07/02 06:20:33;;;;;;;2.80;1.67;;;15.80;85.80;;;;;;5095393;28;20048;-78
2021/07/02 06:22:58;;;;;;;3.97;2.10;;;15.90;85.70;;;;;;5114932;28;20047;-78
2021/07/02 06:25:24;;;;;;;4.90;2.17;;;16.00;85.50;;;;;;5114090;28;20446;-78
2021/07/02 06:27:50;;;;;;;3.13;1.90;;;16.10;85.40;;;;;;5094209;28;20036;-78
2021/07/02 06:30:16;;;;;;;4.20;2.40;;;16.10;85.20;;;;;;5095862;28;20044;-78
2021/07/02 06:32:42;;;;;;;4.18;2.00;;;16.20;85.00;;;;;;5095859;28;20063;-77
2021/07/02 06:35:08;;;;;;;3.70;2.10;;;16.20;84.80;;;;;;5094409;28;20075;-78
2021/07/02 06:37:34;;;;;;;3.35;2.10;;;16.30;84.80;;;;;;5096038;28;20047;-78
2021/07/02 06:39:59;;;;;;;4.10;2.00;;;16.40;84.60;;;;;;5078929;28;20046;-78
2021/07/02 06:42:25;;;;;;;4.75;2.30;;;16.60;84.30;;;;;;5113957;28;20051;-78
2021/07/02 06:44:50;;;;;;;4.30;2.30;;;16.70;84.10;;;;;;5113899;28;20046;-77
2021/07/02 06:47:16;;;;;;;4.13;2.00;;;16.70;83.90;;;;;;5095664;28;20048;-78
2021/07/02 06:49:42;;;;;;;3.65;2.10;;;16.80;83.70;;;;;;5095689;28;20035;-78
2021/07/02 06:52:08;;;;;;;3.42;1.83;;;16.90;83.50;;;;;;5078593;28;20442;-78
2021/07/02 06:54:34;;;;;;;3.45;1.90;;;16.80;83.40;;;;;;5113703;28;20032;-78
2021/07/02 06:57:00;;;;;;;2.50;1.63;;;16.90;83.80;;;;;;5095594;28;20055;-78
2021/07/02 06:59:27;;;;;;;2.40;1.50;;;17.00;83.90;;;;;;5095613;28;20040;-78
2021/07/02 07:01:54;;;;;;;3.72;1.83;;;17.10;83.80;;;;;;5076680;28;20077;-78
2021/07/02 07:04:20;;;;;;;3.10;1.88;;;17.10;83.50;;;;;;5070394;28;20046;-80
2021/07/02 07:06:45;;;;;;;3.03;1.83;;;17.20;83.50;;;;;;5090136;28;20079;-80
2021/07/02 07:09:11;;;;;;;4.65;1.85;;;17.40;83.50;;;;;;5129805;28;20023;-78
2021/07/02 07:11:36;;;;;;;3.45;1.52;;;17.50;83.10;;;;;;5123704;28;20409;-77
2021/07/02 07:14:02;;;;;;;2.92;1.42;;;17.60;83.00;;;;;;5125570;28;20108;-78
2021/07/02 07:16:27;;;;;;;4.03;1.55;;;17.80;82.80;;;;;;5096519;28;20043;-78
2021/07/02 07:18:53;;;;;;;2.95;1.63;;;17.90;82.70;;;;;;5114992;28;20036;-78
2021/07/02 07:21:19;;;;;;;2.65;1.60;;;18.00;82.50;;;;;;5095104;28;20047;-78
2021/07/02 07:23:44;;;;;;;2.30;1.60;;;18.00;82.20;;;;;;5096398;28;20089;-78
2021/07/02 07:26:10;;;;;;;3.92;2.03;;;18.10;82.40;;;;;;5078747;28;20047;-78
2021/07/02 07:28:35;;;;;;;3.53;2.15;;;18.10;82.30;;;;;;5078445;28;20042;-78
2021/07/02 07:31:01;;;;;;;3.92;2.15;;;18.10;82.60;;;;;;5095476;28;20108;-78
2021/07/02 07:33:29;;;;;;;3.83;2.15;;;18.20;82.40;;;;;;5078154;28;20042;-78
2021/07/02 07:35:55;;;;;;;3.28;2.10;;;18.10;82.40;;;;;;5077869;28;20046;-78
2021/07/02 07:38:20;;;;;;;4.63;2.28;;;18.10;82.50;;;;;;5078484;28;20051;-77
2021/07/02 07:40:46;;;;;;;3.38;2.15;;;18.20;82.60;;;;;;5078699;28;20044;-78
2021/07/02 07:43:11;;;;;;;3.33;2.00;;;18.20;82.50;;;;;;5113074;28;20570;-78
2021/07/02 07:45:37;;;;;;;4.18;2.00;;;18.30;82.50;;;;;;5094925;28;20055;-77
2021/07/02 07:48:03;;;;;;;4.85;2.75;;;18.40;82.40;;;;;;5095326;28;20076;-77
2021/07/02 07:50:31;;;;;;;6.20;2.58;;;18.50;82.00;;;;;;5076682;28;20467;-77
2021/07/02 07:52:58;;;;;;;4.15;2.28;;;18.70;81.80;;;;;;5095788;28;20485;-78
2021/07/02 07:55:27;;;;;;;4.00;2.60;;;18.80;81.60;;;;;;5078731;28;20065;-78
2021/07/02 07:57:53;;;;;;;3.33;1.75;;;18.80;81.40;;;;;;5077622;28;20039;-78
2021/07/02 08:00:19;;;;;;;4.15;2.25;;;19.00;81.50;;;;;;5077898;28;20107;-79
2021/07/02 08:02:45;;;;;;;2.92;1.90;;;19.10;80.90;;;;;;5114049;28;20043;-78
2021/07/02 08:05:11;;;;;;;3.35;1.90;;;19.10;81.10;;;;;;5061035;28;20047;-77
2021/07/02 08:07:38;;;;;;;2.78;1.73;;;19.00;81.10;;;;;;5113306;28;20036;-78
2021/07/02 08:10:07;;;;;;;2.45;1.65;;;19.00;81.50;;;;;;5094430;28;20047;-78
2021/07/02 08:12:33;;;;;;;2.65;1.50;;;19.00;81.80;;;;;;5112418;28;20038;-79
2021/07/02 08:14:59;;;;;;;2.50;1.65;;;19.10;81.80;;;;;;5099745;28;20115;-78
2021/07/02 08:17:28;;;;;;;3.22;1.80;;;19.20;81.50;;;;;;5094651;28;20094;-80
2021/07/02 08:19:55;;;;;;;2.63;1.67;;;19.20;81.40;;;;;;5078289;28;20066;-80
2021/07/02 08:22:21;;;;;;;2.58;1.77;;;19.20;81.60;;;;;;5079877;28;20036;-78
2021/07/02 08:24:47;;;;;;;2.90;1.65;;;19.00;81.80;;;;;;5112572;28;20039;-79
2021/07/02 08:27:13;;;;;;;2.08;1.50;;;18.90;82.20;;;;;;5096470;28;20577;-79
2021/07/02 08:29:38;;;;;;;2.65;2.10;;;18.90;82.30;;;;;;5112682;28;20411;-79
2021/07/02 08:32:04;;;;;;;2.30;1.60;;;18.90;82.40;;;;;;5097579;28;20062;-78
2021/07/02 08:34:29;;;;;;;3.03;1.70;;;19.00;82.50;;;;;;5097109;28;20054;-77
2021/07/02 08:36:55;;;;;;;2.95;1.85;;;18.90;82.30;;;;;;5094951;28;20504;-77
2021/07/02 08:39:21;;;;;;;2.83;1.88;;;18.90;82.40;;;;;;5095030;28;20039;-79
2021/07/02 08:41:46;;;;;;;3.83;2.10;;;18.70;82.50;;;;;;5112282;28;20039;-80
2021/07/02 08:44:12;;;;;;;4.22;2.17;;;18.70;82.60;;;;;;5093830;28;20112;-79
2021/07/02 08:46:39;;;;;;;4.78;2.40;;;18.70;82.90;;;;;;5094786;28;20409;-79
2021/07/02 08:49:05;;;;;;;3.97;1.95;;;18.70;82.90;;;;;;5098246;28;20100;-79
2021/07/02 08:51:32;;;;;;;2.63;1.75;;;18.70;83.10;;;;;;5063801;28;20117;-80
2021/07/02 08:53:58;;;;;;;3.47;1.95;;;18.60;83.10;;;;;;5097462;28;20047;-80
2021/07/02 08:56:24;;;;;;;3.15;2.10;;;18.60;83.10;;;;;;5080409;28;20047;-80
2021/07/02 08:58:50;;;;;;;3.60;1.83;;;18.70;82.90;;;;;;5097463;28;20446;-80
2021/07/02 09:01:46;;;;;;;4.18;2.20;;;18.80;82.80;;;;;;5063980;28;20489;-81
2021/07/02 09:04:23;;;;;;;3.75;2.38;;;18.90;82.60;;;;;;5115813;28;20044;-78
2021/07/02 09:07:08;;;;;;;4.05;2.45;;;18.80;82.30;;;;;;5095796;28;20097;-78
2021/07/02 09:09:56;;;;;;;3.72;2.10;;;18.90;82.30;;;;;;5097197;28;20071;-77
2021/07/02 09:12:27;;;;;;;3.70;2.05;;;18.90;82.30;;;;;;5100623;28;20515;-79
2021/07/02 09:15:05;;;;;;;2.78;1.90;;;18.90;82.10;;;;;;5080853;28;20043;-79
2021/07/02 09:17:34;;;;;;;3.22;2.17;;;19.00;82.00;;;;;;5096938;28;20058;-78
2021/07/02 09:20:07;;;;;;;3.30;1.83;;;19.10;81.90;;;;;;5080403;28;20516;-77
2021/07/02 09:22:41;;;;;;;3.13;2.20;;;19.30;81.60;;;;;;5097513;28;20039;-78
2021/07/02 09:25:12;;;;;;;3.35;1.75;;;19.40;81.10;;;;;;5095125;28;20119;-75
2021/07/02 09:27:41;;;;;;;;;;;19.40;80.90;;;;;;5095915;28;20044;-76
2021/07/02 09:30:11;;;;;;;3.42;1.90;;;19.60;81.00;;;;;;5115235;28;19919;-76
2021/07/02 09:32:41;;;;;;;3.03;1.93;;;19.60;80.60;;;;;;5080307;28;20550;-79
2021/07/02 09:35:07;;;;;;;3.03;1.75;;;19.80;80.50;;;;;;5097291;28;20326;-80
2021/07/02 09:37:39;;;;;;;3.95;2.35;;;19.80;80.70;;;;;;5079737;28;20519;-81
2021/07/02 09:40:22;;;;;;;3.50;2.20;;;19.80;80.10;;;;;;5116238;28;20051;-77
2021/07/02 09:42:59;;;;;;;3.83;2.28;;;19.60;80.50;;;;;;5080251;28;20043;-76
2021/07/02 09:45:25;;;;;;;3.42;1.95;;;19.60;81.00;;;;;;5080009;28;20068;-76
2021/07/02 09:47:51;;;;;;;2.65;1.90;;;19.70;81.00;;;;;;5079852;28;20189;-76
2021/07/02 09:50:25;;;;;;;2.83;1.90;;;19.70;80.80;;;;;;5096765;28;20031;-77
2021/07/02 09:52:59;;;;;;;3.35;1.92;;;19.70;80.80;;;;;;5115379;28;20040;-77
2021/07/02 09:55:31;;;;;;;3.40;2.08;;;19.70;80.80;;;;;;5115488;28;20039;-75
2021/07/02 09:58:16;;;;;;;4.68;2.72;;;19.70;81.00;;;;;;5093157;28;20044;-75
2021/07/02 10:00:45;;;;;;;3.95;2.30;;;19.60;81.10;;;;;;5061598;28;20492;-75
2021/07/02 10:03:12;;;;;;;4.32;2.58;;;19.50;81.30;;;;;;5114785;28;20048;-75
2021/07/02 10:05:58;;;;;;;4.55;2.83;;;19.40;81.50;;;;;;5079393;28;20378;-75
2021/07/02 10:08:26;;;;;;;5.55;2.60;;;19.40;81.60;;;;;;5114573;28;20048;-75
2021/07/02 10:10:54;;;;;;;3.70;2.35;;;19.40;81.70;;;;;;5114457;28;20042;-75
2021/07/02 10:13:21;;;;;;;4.30;2.60;;;19.40;81.60;;;;;;5062841;28;20028;-76
2021/07/02 10:15:47;;;;;;;4.45;2.45;;;19.50;81.40;;;;;;5096148;28;20073;-75
2021/07/02 10:18:15;;;;;;;3.78;2.28;;;19.50;81.40;;;;;;5062726;28;20116;-75
2021/07/02 10:20:42;;;;;;;3.65;2.38;;;19.40;81.30;;;;;;5096169;28;20047;-75
2021/07/02 10:23:09;;;;;;;3.55;2.10;;;19.40;81.40;;;;;;5095616;28;20050;-75
2021/07/02 10:25:36;;;;;;;4.03;2.60;;;19.50;81.50;;;;;;5094978;28;20067;-76
2021/07/02 10:28:03;;;;;;;2.88;1.92;;;19.50;81.50;;;;;;5114393;28;20040;-78
2021/07/02 10:30:29;;;;;;;3.47;2.20;;;19.40;81.20;;;;;;5077793;28;20131;-77
2021/07/02 10:32:58;;;;;;;4.22;2.47;;;19.50;81.30;;;;;;5114350;28;20078;-83
2021/07/02 10:35:28;;;;;;;3.65;2.42;;;19.50;81.20;;;;;;5078793;28;20130;-80
2021/07/02 10:37:58;;;;;;;4.05;2.58;;;19.40;81.10;;;;;;5114049;28;20092;-79
2021/07/02 10:40:44;;;;;;;2.97;1.97;;;19.40;81.40;;;;;;5095263;28;20104;-82
2021/07/02 10:43:14;;;;;;;3.05;2.00;;;19.30;81.50;;;;;;5082432;28;20044;-81
2021/07/02 10:46:16;;;;;;;4.35;2.47;;;19.30;81.60;;;;;;5063123;28;20038;-81
2021/07/02 10:48:55;;;;;;;2.47;1.75;;;19.30;81.60;;;;;;5079229;28;20036;-80
2021/07/02 10:51:42;;;;;;;2.47;1.70;;;19.30;81.70;;;;;;5063439;28;20151;-79
2021/07/02 10:54:30;;;;;;;2.45;1.65;;;19.30;81.70;;;;;;5097484;28;20113;-76
2021/07/02 10:57:03;;;;;;;3.03;2.10;;;19.10;81.80;;;;;;5095494;28;20044;-78
2021/07/02 11:00:00;;;;;;;3.00;2.05;;;19.30;81.90;;;;;;5095570;28;20046;-78
2021/07/02 11:02:26;;;;;;;3.10;1.90;;;19.30;81.70;;;;;;5078537;28;20036;-78
2021/07/02 11:04:58;;;;;;;3.75;1.88;;;19.40;81.50;;;;;;5097184;28;20505;-79
2021/07/02 11:07:43;;;;;;;2.47;1.73;;;19.60;81.30;;;;;;5104331;28;20056;-78
2021/07/02 11:10:10;;;;;;;3.60;2.20;;;19.60;81.20;;;;;;5092746;28;20040;-83
2021/07/02 11:12:58;;;;;;;3.15;2.17;;;19.60;81.30;;;;;;5079260;28;20046;-83
2021/07/02 11:15:24;;;;;;;3.67;2.10;;;19.70;81.00;;;;;;5099817;28;20043;-82
2021/07/02 11:18:09;;;;;;;4.28;2.38;;;19.70;80.90;;;;;;5094720;28;20039;-82
2021/07/02 11:20:35;;;;;;;3.17;2.10;;;19.90;80.80;;;;;;5110412;28;20040;-81
2021/07/02 11:23:17;;;;;;;3.00;1.85;;;19.90;80.50;;;;;;5096444;28;20477;-81
2021/07/02 11:25:55;;;;;;;2.20;1.60;;;20.00;80.50;;;;;;5114341;28;20092;-81
2021/07/02 11:28:40;;;;;;;4.22;2.30;;;20.10;80.40;;;;;;5072380;28;20111;-81
2021/07/02 11:31:07;;;;;;;4.15;2.38;;;20.00;80.20;;;;;;5079169;28;20036;-79
2021/07/02 11:33:34;;;;;;;4.32;2.35;;;19.80;80.50;;;;;;5095550;28;20032;-78
2021/07/02 11:36:10;;;;;;;4.10;2.35;;;19.60;81.00;;;;;;5078072;28;20038;-79
2021/07/02 11:38:46;;;;;;;4.32;2.50;;;19.50;81.50;;;;;;5094987;28;20047;-80
2021/07/02 11:41:20;;;;;;;2.95;1.80;;;19.40;81.70;;;;;;5113999;28;20043;-82
2021/07/02 11:43:45;;;;;;;2.20;1.60;;;19.40;81.80;;;;;;5078026;28;20092;-82
2021/07/02 11:46:13;;;;;;;2.70;1.80;;;19.30;81.90;;;;;;5078952;28;20047;-81
2021/07/02 11:48:40;;;;;;;3.42;2.03;;;19.40;81.80;;;;;;5114983;28;20036;-82
2021/07/02 11:51:13;;;;;;;3.70;2.38;;;19.30;81.80;;;;;;5093237;28;20036;-80
2021/07/02 11:53:42;;;;;;;2.65;1.80;;;19.20;82.00;;;;;;5112950;28;20389;-82
2021/07/02 11:56:11;;;;;;;3.97;1.95;;;19.10;82.30;;;;;;5077877;28;20088;-81
2021/07/02 11:58:58;;;;;;;2.72;1.80;;;19.10;82.50;;;;;;5095053;28;20047;-83
2021/07/02 12:01:39;;;;;;;2.45;1.63;;;19.10;82.50;;;;;;5110653;28;20384;-84
2021/07/02 12:04:09;;;;;;;3.25;1.60;;;19.10;82.50;;;;;;5079434;28;20059;-82
2021/07/02 12:06:41;;;;;;;2.67;1.50;;;19.10;82.40;;;;;;5061391;28;20084;-80
2021/07/02 12:09:09;;;;;;;2.78;1.73;;;19.30;82.20;;;;;;5096722;28;20035;-81
2021/07/02 12:11:40;;;;;;;1.90;1.48;;;19.30;81.80;;;;;;5095873;28;20036;-79
2021/07/02 12:14:07;;;;;;;;;;;19.30;81.80;;;;;;5113781;28;20035;-80
2021/07/02 12:16:35;;;;;;;2.08;1.55;;;19.40;81.90;;;;;;5094431;28;19954;-79
2021/07/02 12:19:04;;;;;;;2.22;1.63;;;19.30;81.90;;;;;;5094390;28;20400;-79
2021/07/02 12:21:30;;;;;;;2.63;1.60;;;19.40;81.70;;;;;;5114802;28;20472;-80
2021/07/02 12:24:00;;;;;;;2.85;1.90;;;19.50;81.60;;;;;;5099944;28;20074;-77
2021/07/02 12:26:29;;;;;;;2.30;1.60;;;19.70;81.30;;;;;;5113015;28;20109;-76
2021/07/02 12:28:59;;;;;;;2.70;1.60;;;19.80;80.90;;;;;;5098982;28;20381;-76
2021/07/02 12:31:30;;;;;;;;;;;19.90;80.60;;;;;;5094626;28;20028;-76
2021/07/02 12:33:56;;;;;;;2.17;1.50;;;19.90;80.50;;;;;;5116242;28;19912;-76
2021/07/02 12:36:23;;;;;;;3.08;1.60;;;19.90;80.50;;;;;;5098022;28;20044;-75
2021/07/02 12:39:08;;;;;;;2.65;1.77;;;19.80;80.50;;;;;;5080883;28;20485;-76
2021/07/02 12:41:36;;;;;;;1.98;1.38;;;20.00;80.70;;;;;;5095944;28;20094;-75
2021/07/02 12:44:02;;;;;;;1.88;1.35;;;19.90;80.60;;;;;;5097325;28;20048;-76
2021/07/02 12:46:27;;;;;;;2.40;1.75;;;20.00;80.70;;;;;;5116256;28;20055;-75
2021/07/02 12:49:24;;;;;;;3.38;2.20;;;20.10;80.50;;;;;;5115698;28;20362;-76
2021/07/02 12:54:56;;;;;;;3.70;2.17;;;19.90;80.90;;;;;;5086500;28;20058;-75
2021/07/02 12:57:26;;;;;;;4.00;2.03;;;19.90;81.10;;;;;;5115852;28;20053;-76